createdAt,value
2023-05-21T00:00:37.345Z,8.73
2023-05-21T00:03:06.451Z,8.75
2023-05-21T00:05:35.639Z,8.77
2023-05-21T00:08:06.687Z,8.77
2023-05-21T00:10:35.708Z,8.79
2023-05-21T00:13:04.706Z,8.77
2023-05-21T00:15:34.072Z,8.78
2023-05-21T00:18:03.840Z,8.78
2023-05-21T00:20:33.453Z,8.77
2023-05-21T00:23:04.037Z,8.79
2023-05-21T00:25:35.136Z,8.79
2023-05-21T00:28:04.285Z,8.78
2023-05-21T00:30:33.309Z,8.80
2023-05-21T00:33:03.425Z,8.80
2023-05-21T00:35:32.512Z,8.78
2023-05-21T00:38:01.988Z,8.75
2023-05-21T00:40:32.296Z,8.75
2023-05-21T00:43:02.854Z,8.75
2023-05-21T00:45:31.890Z,8.76
2023-05-21T00:48:03.055Z,8.78
2023-05-21T00:50:32.564Z,8.79
2023-05-21T00:53:01.582Z,8.79
2023-05-21T00:55:31.136Z,8.81
2023-05-21T00:58:00.171Z,8.82
2023-05-21T01:00:30.797Z,8.83
2023-05-21T01:02:59.947Z,8.83
2023-05-21T01:05:29.697Z,8.81
2023-05-21T01:08:00.134Z,8.81
2023-05-21T01:10:30.554Z,8.83
2023-05-21T01:13:00.904Z,8.83
2023-05-21T01:15:31.639Z,8.85
2023-05-21T01:18:01.241Z,8.86
2023-05-21T01:20:32.190Z,8.85
2023-05-21T01:23:04.089Z,8.85
2023-05-21T01:25:33.251Z,8.89
2023-05-21T01:28:02.451Z,8.89
2023-05-21T01:30:31.606Z,8.92
2023-05-21T01:33:04.994Z,8.92
2023-05-21T01:35:36.972Z,8.94
2023-05-21T01:38:19.114Z,8.97
2023-05-21T01:40:54.436Z,8.95
2023-05-21T01:43:24.869Z,8.96
2023-05-21T01:45:56.739Z,8.99
2023-05-21T01:48:27.086Z,9.01
2023-05-21T01:50:57.115Z,9.06
2023-05-21T01:53:27.790Z,9.13
2023-05-21T01:55:57.224Z,9.20
2023-05-21T01:58:26.601Z,9.21
2023-05-21T02:00:55.691Z,9.25
2023-05-21T02:03:28.223Z,9.30
2023-05-21T02:05:57.385Z,9.30
2023-05-21T02:08:28.039Z,9.38
2023-05-21T02:10:57.606Z,9.41
2023-05-21T02:13:27.146Z,9.39
2023-05-21T02:15:57.550Z,9.41
2023-05-21T02:18:29.403Z,9.45
2023-05-21T02:20:58.805Z,9.46
2023-05-21T02:23:29.225Z,9.38
2023-05-21T02:25:58.545Z,9.40
2023-05-21T02:28:30.072Z,9.39
2023-05-21T02:30:59.305Z,9.37
2023-05-21T02:33:28.895Z,9.35
2023-05-21T02:35:57.948Z,9.34
2023-05-21T02:38:28.901Z,9.34
2023-05-21T02:40:57.999Z,9.30
2023-05-21T02:43:27.355Z,9.28
2023-05-21T02:45:56.490Z,9.32
2023-05-21T02:48:27.163Z,9.32
2023-05-21T02:50:56.269Z,9.30
2023-05-21T02:53:25.256Z,9.34
2023-05-21T02:55:56.541Z,9.37
2023-05-21T02:58:26.032Z,9.44
2023-05-21T03:00:55.131Z,9.46
2023-05-21T03:03:24.284Z,9.59
2023-05-21T03:05:53.402Z,9.70
2023-05-21T03:08:22.647Z,9.63
2023-05-21T03:10:51.726Z,9.65
2023-05-21T03:13:22.367Z,9.65
2023-05-21T03:15:56.294Z,9.59
2023-05-21T03:18:25.451Z,9.57
2023-05-21T03:20:54.994Z,9.50
2023-05-21T03:23:24.012Z,9.53
2023-05-21T03:25:53.243Z,9.65
2023-05-21T03:28:24.566Z,9.50
2023-05-21T03:30:53.741Z,9.60
2023-05-21T03:33:42.026Z,9.71
2023-05-21T03:36:25.081Z,9.88
2023-05-21T03:38:54.658Z,9.81
2023-05-21T03:41:24.119Z,9.88
2023-05-21T03:43:59.798Z,9.98
2023-05-21T03:46:34.360Z,10.02
2023-05-21T03:49:09.832Z,9.94
2023-05-21T03:51:40.569Z,9.91
2023-05-21T03:54:12.487Z,9.97
2023-05-21T03:56:42.319Z,10.03
2023-05-21T03:59:13.033Z,10.13
2023-05-21T04:01:42.835Z,10.16
2023-05-21T04:04:16.286Z,10.38
2023-05-21T04:06:45.605Z,10.57
2023-05-21T04:09:15.483Z,10.61
2023-05-21T04:11:45.030Z,10.69
2023-05-21T04:14:15.465Z,10.69
2023-05-21T04:16:45.074Z,10.67
2023-05-21T04:19:14.158Z,10.72
2023-05-21T04:21:45.230Z,10.84
2023-05-21T04:24:16.710Z,11.17
2023-05-21T04:26:52.376Z,11.46
2023-05-21T04:29:23.129Z,11.53
2023-05-21T04:31:52.926Z,11.64
2023-05-21T04:34:22.076Z,11.70
2023-05-21T04:36:52.181Z,11.95
2023-05-21T04:39:21.756Z,12.18
2023-05-21T04:41:54.771Z,11.98
2023-05-21T04:44:25.346Z,11.93
2023-05-21T04:46:55.046Z,11.88
2023-05-21T04:49:24.570Z,11.67
2023-05-21T04:51:53.900Z,11.29
2023-05-21T04:54:22.864Z,11.39
2023-05-21T04:56:52.821Z,11.59
2023-05-21T04:59:21.854Z,11.56
2023-05-21T05:01:52.830Z,11.61
2023-05-21T05:04:24.043Z,12.13
2023-05-21T05:06:53.529Z,12.49
2023-05-21T05:09:41.586Z,12.60
2023-05-21T05:12:11.007Z,12.55
2023-05-21T05:14:40.280Z,12.54
2023-05-21T05:17:11.024Z,12.58
2023-05-21T05:19:40.084Z,12.57
2023-05-21T05:22:09.142Z,12.84
2023-05-21T05:24:38.555Z,13.46
2023-05-21T05:27:07.632Z,13.70
2023-05-21T05:29:37.095Z,13.90
2023-05-21T05:32:07.336Z,13.86
2023-05-21T05:34:38.819Z,13.56
2023-05-21T05:37:08.182Z,13.03
2023-05-21T05:39:37.248Z,13.03
2023-05-21T05:42:07.102Z,13.01
2023-05-21T05:44:36.272Z,13.35
2023-05-21T05:47:09.307Z,13.18
2023-05-21T05:49:39.859Z,13.01
2023-05-21T05:52:09.202Z,13.17
2023-05-21T05:54:38.532Z,13.46
2023-05-21T05:57:08.149Z,13.71
2023-05-21T05:59:38.248Z,13.73
2023-05-21T06:02:08.282Z,13.90
2023-05-21T06:04:37.385Z,13.91
2023-05-21T06:07:08.160Z,14.06
2023-05-21T06:09:38.951Z,14.24
2023-05-21T06:12:12.292Z,14.34
2023-05-21T06:14:45.985Z,14.12
2023-05-21T06:17:15.249Z,13.93
2023-05-21T06:19:45.434Z,13.98
2023-05-21T06:22:16.116Z,14.00
2023-05-21T06:24:45.981Z,13.77
2023-05-21T06:27:16.438Z,13.36
2023-05-21T06:29:46.153Z,13.10
2023-05-21T06:32:16.233Z,13.29
2023-05-21T06:34:45.340Z,13.54
2023-05-21T06:37:16.135Z,14.21
2023-05-21T06:39:46.121Z,14.86
2023-05-21T06:42:15.211Z,14.76
2023-05-21T06:44:55.549Z,14.96
2023-05-21T06:47:32.565Z,14.77
2023-05-21T06:50:01.858Z,15.26
2023-05-21T06:52:35.867Z,15.70
2023-05-21T06:55:06.549Z,15.95
2023-05-21T06:57:55.851Z,15.75
2023-05-21T07:00:24.949Z,15.73
2023-05-21T07:02:54.574Z,15.77
2023-05-21T07:05:23.966Z,15.83
2023-05-21T07:07:54.638Z,15.95
2023-05-21T07:10:23.788Z,16.29
2023-05-21T07:12:52.962Z,16.28
2023-05-21T07:15:41.754Z,16.30
2023-05-21T07:18:11.957Z,15.84
2023-05-21T07:20:44.372Z,15.36
2023-05-21T07:23:37.804Z,15.60
2023-05-21T07:26:11.431Z,16.10
2023-05-21T07:28:40.789Z,15.84
2023-05-21T07:31:12.332Z,15.66
2023-05-21T07:33:46.111Z,15.66
2023-05-21T07:36:16.376Z,16.29
2023-05-21T07:38:46.951Z,16.46
2023-05-21T07:41:18.528Z,15.86
2023-05-21T07:43:49.161Z,15.66
2023-05-21T07:46:36.778Z,15.91
2023-05-21T07:49:06.177Z,15.68
2023-05-21T07:51:35.301Z,15.66
2023-05-21T07:54:06.608Z,16.16
2023-05-21T07:56:54.234Z,16.30
2023-05-21T07:59:52.850Z,16.02
2023-05-21T08:02:23.065Z,15.93
2023-05-21T08:04:55.284Z,16.15
2023-05-21T08:07:43.344Z,16.06
2023-05-21T08:10:13.977Z,15.64
2023-05-21T08:12:43.438Z,15.47
2023-05-21T08:15:12.992Z,15.76
2023-05-21T08:17:46.515Z,16.27
2023-05-21T08:20:16.282Z,16.23
2023-05-21T08:22:48.466Z,15.96
2023-05-21T08:25:20.045Z,16.19
2023-05-21T08:27:51.579Z,16.05
2023-05-21T08:30:22.794Z,16.13
2023-05-21T08:32:52.138Z,16.72
2023-05-21T08:35:22.917Z,16.45
2023-05-21T08:38:09.472Z,16.46
2023-05-21T08:41:01.029Z,17.37
2023-05-21T08:43:31.806Z,18.34
2023-05-21T08:46:05.004Z,18.24
2023-05-21T08:48:39.005Z,17.82
2023-05-21T08:51:08.574Z,17.66
2023-05-21T08:53:45.938Z,17.62
2023-05-21T08:56:19.699Z,17.68
2023-05-21T08:58:53.784Z,18.10
2023-05-21T09:01:26.784Z,18.24
2023-05-21T09:04:21.314Z,18.53
2023-05-21T09:06:58.111Z,18.15
2023-05-21T09:09:56.479Z,17.47
2023-05-21T09:12:27.519Z,17.54
2023-05-21T09:14:58.685Z,17.26
2023-05-21T09:17:34.381Z,17.34
2023-05-21T09:20:16.724Z,17.39
2023-05-21T09:22:56.678Z,18.47
2023-05-21T09:25:28.423Z,19.40
2023-05-21T09:28:01.342Z,20.24
2023-05-21T09:30:32.485Z,20.10
2023-05-21T09:33:03.728Z,19.49
2023-05-21T09:35:37.508Z,18.10
2023-05-21T09:38:10.725Z,17.78
2023-05-21T09:40:46.998Z,17.94
2023-05-21T09:43:19.885Z,18.21
2023-05-21T09:45:53.586Z,18.32
2023-05-21T09:48:39.235Z,18.78
2023-05-21T09:51:13.939Z,18.76
2023-05-21T09:53:50.094Z,18.32
2023-05-21T09:56:22.632Z,18.20
2023-05-21T09:58:55.827Z,17.72
2023-05-21T10:01:25.692Z,17.48
2023-05-21T10:03:58.103Z,17.61
2023-05-21T10:06:28.995Z,17.98
2023-05-21T10:08:59.355Z,18.50
2023-05-21T10:11:32.688Z,18.98
2023-05-21T10:14:09.117Z,18.58
2023-05-21T10:16:39.103Z,18.09
2023-05-21T10:19:11.219Z,17.54
2023-05-21T10:21:41.379Z,17.21
2023-05-21T10:24:11.148Z,17.12
2023-05-21T10:26:41.028Z,17.06
2023-05-21T10:29:11.754Z,17.18
2023-05-21T10:31:41.146Z,17.38
2023-05-21T10:34:11.963Z,17.92
2023-05-21T10:36:42.444Z,18.61
2023-05-21T10:39:14.623Z,19.53
2023-05-21T10:41:54.038Z,19.82
2023-05-21T10:44:38.670Z,20.78
2023-05-21T10:47:32.791Z,21.10
2023-05-21T10:50:16.960Z,21.02
2023-05-21T10:52:58.390Z,20.26
2023-05-21T10:55:48.355Z,20.20
2023-05-21T10:58:41.267Z,20.27
2023-05-21T11:01:12.430Z,20.12
2023-05-21T11:03:42.234Z,19.89
2023-05-21T11:06:12.066Z,19.55
2023-05-21T11:08:49.324Z,19.34
2023-05-21T11:11:43.074Z,18.91
2023-05-21T11:14:32.797Z,18.73
2023-05-21T11:17:04.838Z,18.66
2023-05-21T11:19:52.006Z,18.43
2023-05-21T11:22:24.996Z,18.30
2023-05-21T11:24:55.328Z,18.42
2023-05-21T11:27:35.150Z,18.31
2023-05-21T11:30:08.791Z,18.25
2023-05-21T11:32:58.738Z,18.85
2023-05-21T11:35:29.132Z,19.61
2023-05-21T11:38:15.333Z,20.10
2023-05-21T11:41:03.259Z,19.61
2023-05-21T11:43:32.479Z,19.23
2023-05-21T11:46:18.951Z,19.39
2023-05-21T11:49:10.173Z,19.66
2023-05-21T11:51:41.594Z,20.43
2023-05-21T11:54:34.401Z,20.96
2023-05-21T11:57:04.298Z,21.28
2023-05-21T11:59:35.037Z,21.75
2023-05-21T12:02:04.996Z,21.70
2023-05-21T12:04:53.889Z,21.58
2023-05-21T12:07:22.961Z,21.52
2023-05-21T12:09:53.288Z,21.02
2023-05-21T12:12:23.609Z,20.70
2023-05-21T12:14:54.076Z,20.52
2023-05-21T12:17:24.374Z,20.71
2023-05-21T12:19:56.748Z,20.99
2023-05-21T12:22:28.114Z,21.04
2023-05-21T12:25:15.970Z,21.00
2023-05-21T12:27:45.301Z,21.24
2023-05-21T12:30:15.416Z,21.63
2023-05-21T12:32:45.337Z,22.05
2023-05-21T12:35:24.887Z,22.20
2023-05-21T12:37:54.510Z,22.35
2023-05-21T12:40:23.780Z,22.32
2023-05-21T12:42:52.878Z,22.29
2023-05-21T12:45:22.901Z,21.99
2023-05-21T12:47:56.590Z,21.76
2023-05-21T12:50:28.348Z,21.83
2023-05-21T12:52:59.196Z,21.34
2023-05-21T12:55:28.385Z,21.19
2023-05-21T12:58:25.477Z,21.13
2023-05-21T13:01:13.765Z,20.99
2023-05-21T13:04:02.553Z,21.16
2023-05-21T13:06:43.583Z,21.35
2023-05-21T13:09:31.546Z,21.58
2023-05-21T13:12:00.710Z,21.60
2023-05-21T13:14:29.859Z,21.52
2023-05-21T13:16:59.987Z,21.42
2023-05-21T13:19:29.433Z,21.15
2023-05-21T13:22:00.109Z,21.03
2023-05-21T13:24:29.138Z,20.87
2023-05-21T13:26:58.174Z,20.75
2023-05-21T13:29:27.311Z,20.42
2023-05-21T13:31:56.420Z,20.56
2023-05-21T13:34:25.861Z,20.52
2023-05-21T13:36:54.956Z,20.60
2023-05-21T13:39:27.755Z,20.58
2023-05-21T13:41:56.840Z,20.53
2023-05-21T13:44:25.843Z,20.39
2023-05-21T13:46:55.028Z,20.33
2023-05-21T13:49:24.032Z,20.27
2023-05-21T13:52:11.948Z,20.03
2023-05-21T13:54:43.928Z,20.07
2023-05-21T13:57:13.042Z,20.21
2023-05-21T14:00:02.095Z,20.41
2023-05-21T14:02:38.053Z,20.12
2023-05-21T14:05:07.834Z,20.04
2023-05-21T14:07:36.909Z,20.19
2023-05-21T14:10:08.550Z,20.10
2023-05-21T14:12:38.680Z,20.05
2023-05-21T14:15:08.912Z,20.36
2023-05-21T14:17:56.673Z,20.50
2023-05-21T14:20:25.838Z,20.44
2023-05-21T14:22:55.005Z,20.60
2023-05-21T14:25:25.511Z,20.65
2023-05-21T14:27:54.623Z,20.51
2023-05-21T14:30:24.012Z,20.84
2023-05-21T14:33:10.472Z,21.21
2023-05-21T14:35:58.230Z,21.45
2023-05-21T14:38:27.861Z,21.45
2023-05-21T14:40:58.514Z,21.23
2023-05-21T14:43:27.569Z,20.93
2023-05-21T14:45:56.633Z,20.59
2023-05-21T14:48:25.758Z,20.49
2023-05-21T14:50:54.963Z,19.96
2023-05-21T14:53:24.073Z,19.72
2023-05-21T14:55:54.160Z,19.50
2023-05-21T14:58:24.788Z,19.20
2023-05-21T15:00:53.821Z,18.95
2023-05-21T15:04:00.356Z,18.79
2023-05-21T15:06:29.688Z,18.63
2023-05-21T15:08:58.796Z,18.66
2023-05-21T15:12:04.259Z,18.53
2023-05-21T15:14:35.238Z,18.36
2023-05-21T15:17:22.879Z,18.15
2023-05-21T15:19:52.046Z,17.98
2023-05-21T15:22:21.144Z,18.02
2023-05-21T15:24:50.253Z,18.07
2023-05-21T15:27:19.485Z,18.05
2023-05-21T15:30:08.279Z,17.99
2023-05-21T15:32:37.457Z,17.93
2023-05-21T15:35:24.543Z,17.82
2023-05-21T15:37:53.946Z,17.66
2023-05-21T15:40:24.404Z,17.60
2023-05-21T15:42:55.295Z,17.43
2023-05-21T15:45:25.894Z,17.46
2023-05-21T15:47:55.141Z,17.82
2023-05-21T15:50:24.350Z,18.64
2023-05-21T15:52:53.753Z,18.69
2023-05-21T15:55:23.034Z,18.32
2023-05-21T15:57:52.010Z,17.99
2023-05-21T16:00:21.276Z,17.77
2023-05-21T16:02:51.784Z,17.54
2023-05-21T16:05:20.785Z,17.26
2023-05-21T16:07:50.187Z,17.01
2023-05-21T16:10:19.578Z,16.82
2023-05-21T16:12:50.429Z,16.66
2023-05-21T16:15:19.498Z,16.49
2023-05-21T16:17:48.659Z,16.36
2023-05-21T16:20:21.917Z,16.22
2023-05-21T16:22:51.279Z,16.11
2023-05-21T16:25:20.488Z,16.00
2023-05-21T16:27:50.302Z,15.91
2023-05-21T16:30:19.839Z,15.83
2023-05-21T16:32:49.181Z,15.76
2023-05-21T16:35:19.689Z,15.69
2023-05-21T16:37:48.727Z,15.65
2023-05-21T16:40:18.111Z,15.53
2023-05-21T16:42:47.192Z,15.46
2023-05-21T16:45:20.722Z,15.38
2023-05-21T16:47:50.529Z,15.30
2023-05-21T16:50:21.555Z,15.22
2023-05-21T16:52:50.840Z,15.12
2023-05-21T16:55:20.109Z,15.01
2023-05-21T16:57:49.674Z,14.91
2023-05-21T17:00:19.380Z,14.78
2023-05-21T17:02:48.512Z,14.61
2023-05-21T17:05:17.773Z,14.42
2023-05-21T17:07:49.314Z,14.24
2023-05-21T17:10:18.608Z,14.11
2023-05-21T17:12:48.476Z,13.93
2023-05-21T17:15:17.699Z,13.67
2023-05-21T17:17:46.990Z,13.49
2023-05-21T17:20:16.406Z,13.26
2023-05-21T17:22:45.528Z,13.11
2023-05-21T17:25:16.239Z,13.04
2023-05-21T17:27:45.498Z,13.07
2023-05-21T17:30:14.920Z,13.22
2023-05-21T17:32:44.049Z,13.16
2023-05-21T17:35:13.212Z,12.97
2023-05-21T17:37:42.354Z,12.78
2023-05-21T17:40:12.426Z,12.58
2023-05-21T17:42:42.909Z,12.39
2023-05-21T17:45:12.624Z,12.34
2023-05-21T17:47:41.725Z,12.28
2023-05-21T17:50:11.609Z,12.18
2023-05-21T17:52:40.689Z,12.04
2023-05-21T17:55:10.434Z,11.89
2023-05-21T17:57:39.566Z,11.76
2023-05-21T18:00:11.284Z,11.59
2023-05-21T18:02:43.400Z,11.47
2023-05-21T18:05:12.564Z,11.36
2023-05-21T18:07:41.696Z,11.31
2023-05-21T18:10:11.253Z,11.31
2023-05-21T18:12:40.910Z,11.22
2023-05-21T18:15:12.266Z,11.10
2023-05-21T18:17:41.469Z,10.94
2023-05-21T18:20:11.801Z,10.95
2023-05-21T18:22:41.215Z,11.02
2023-05-21T18:25:11.112Z,10.94
2023-05-21T18:27:40.502Z,10.84
2023-05-21T18:30:12.180Z,10.89
2023-05-21T18:32:41.491Z,10.84
2023-05-21T18:35:13.141Z,10.81
2023-05-21T18:37:46.831Z,10.80
2023-05-21T18:40:17.638Z,10.73
2023-05-21T18:42:46.708Z,10.70
2023-05-21T18:45:17.387Z,10.62
2023-05-21T18:47:46.453Z,10.56
2023-05-21T18:50:15.893Z,10.52
2023-05-21T18:52:45.094Z,10.51
2023-05-21T18:55:14.547Z,10.49
2023-05-21T18:57:43.707Z,10.52
2023-05-21T19:00:13.907Z,10.47
2023-05-21T19:02:45.709Z,10.40
2023-05-21T19:05:14.934Z,10.35
2023-05-21T19:07:44.415Z,10.36
2023-05-21T19:10:14.113Z,10.34
2023-05-21T19:12:44.147Z,10.41
2023-05-21T19:15:14.018Z,10.45
2023-05-21T19:17:44.636Z,10.29
2023-05-21T19:20:24.357Z,10.15
2023-05-21T19:22:53.829Z,9.96
2023-05-21T19:25:23.712Z,9.86
2023-05-21T19:27:52.980Z,9.84
2023-05-21T19:30:22.153Z,9.88
2023-05-21T19:32:52.946Z,10.01
2023-05-21T19:35:22.811Z,10.08
2023-05-21T19:37:51.881Z,10.10
2023-05-21T19:40:22.758Z,10.13
2023-05-21T19:42:51.830Z,10.23
2023-05-21T19:45:21.723Z,10.22
2023-05-21T19:47:52.917Z,10.16
2023-05-21T19:50:22.358Z,10.07
2023-05-21T19:52:52.293Z,10.07
2023-05-21T19:55:23.254Z,10.07
2023-05-21T19:57:53.308Z,10.04
2023-05-21T20:00:48.641Z,10.03
2023-05-21T20:03:19.172Z,10.09
2023-05-21T20:05:48.296Z,9.93
2023-05-21T20:08:17.810Z,9.82
2023-05-21T20:10:49.367Z,9.79
2023-05-21T20:13:20.410Z,9.76
2023-05-21T20:15:50.063Z,9.70
2023-05-21T20:18:21.920Z,9.65
2023-05-21T20:20:51.139Z,9.62
2023-05-21T20:23:20.261Z,9.64
2023-05-21T20:25:49.337Z,9.69
2023-05-21T20:28:19.833Z,9.74
2023-05-21T20:30:54.739Z,9.78
2023-05-21T20:33:26.022Z,9.85
2023-05-21T20:35:55.107Z,9.86
2023-05-21T20:38:26.520Z,9.87
2023-05-21T20:40:56.474Z,9.80
2023-05-21T20:43:25.776Z,9.70
2023-05-21T20:45:59.938Z,9.69
2023-05-21T20:48:32.137Z,9.73
2023-05-21T20:51:01.580Z,9.81
2023-05-21T20:53:30.608Z,9.82
2023-05-21T20:56:01.727Z,9.78
2023-05-21T20:58:31.620Z,9.73
2023-05-21T21:01:01.932Z,9.81
2023-05-21T21:03:34.416Z,9.92
2023-05-21T21:06:04.721Z,10.05
2023-05-21T21:08:34.869Z,10.12
2023-05-21T21:11:04.030Z,10.14
2023-05-21T21:13:33.062Z,10.15
2023-05-21T21:16:02.058Z,10.04
2023-05-21T21:18:32.694Z,9.89
2023-05-21T21:21:02.141Z,9.85
2023-05-21T21:23:31.351Z,9.95
2023-05-21T21:26:00.338Z,9.98
2023-05-21T21:28:29.590Z,10.06
2023-05-21T21:30:58.756Z,10.05
2023-05-21T21:33:28.559Z,10.06
2023-05-21T21:35:59.166Z,10.09
2023-05-21T21:38:28.193Z,10.17
2023-05-21T21:40:57.424Z,10.19
2023-05-21T21:43:26.671Z,10.01
2023-05-21T21:45:56.050Z,9.66
2023-05-21T21:48:25.135Z,9.41
2023-05-21T21:50:54.169Z,9.34
2023-05-21T21:53:24.739Z,9.29
2023-05-21T21:55:55.233Z,9.30
2023-05-21T21:58:24.368Z,9.31
2023-05-21T22:00:54.295Z,9.29
2023-05-21T22:03:23.315Z,9.17
2023-05-21T22:05:52.729Z,9.00
2023-05-21T22:08:21.927Z,8.85
2023-05-21T22:10:52.691Z,8.74
2023-05-21T22:13:21.822Z,8.70
2023-05-21T22:15:51.667Z,8.60
2023-05-21T22:18:31.941Z,8.52
2023-05-21T22:21:09.951Z,8.51
2023-05-21T22:23:39.732Z,8.41
2023-05-21T22:26:10.800Z,8.33
2023-05-21T22:28:40.159Z,8.34
2023-05-21T22:31:09.494Z,8.44
2023-05-21T22:33:39.340Z,8.46
2023-05-21T22:36:09.298Z,8.58
2023-05-21T22:38:39.032Z,8.60
2023-05-21T22:41:10.034Z,8.37
2023-05-21T22:43:39.311Z,8.07
2023-05-21T22:46:08.417Z,7.98
2023-05-21T22:48:37.451Z,7.93
2023-05-21T22:51:06.707Z,7.88
2023-05-21T22:53:35.835Z,8.06
2023-05-21T22:56:05.042Z,8.17
2023-05-21T22:58:35.581Z,8.05
2023-05-21T23:01:05.758Z,7.97
2023-05-21T23:03:34.768Z,8.03
2023-05-21T23:06:03.852Z,8.00
2023-05-21T23:08:32.856Z,7.80
2023-05-21T23:11:02.027Z,7.67
2023-05-21T23:13:33.290Z,7.57
2023-05-21T23:16:04.542Z,7.48
2023-05-21T23:18:34.492Z,7.35
2023-05-21T23:21:03.673Z,7.27
2023-05-21T23:23:32.829Z,7.40
2023-05-21T23:26:02.029Z,7.45
2023-05-21T23:28:31.029Z,7.63
2023-05-21T23:31:00.120Z,7.71
2023-05-21T23:33:30.517Z,7.79
2023-05-21T23:35:59.624Z,7.84
2023-05-21T23:38:28.676Z,7.90
2023-05-21T23:40:57.677Z,7.89
2023-05-21T23:43:26.683Z,7.88
2023-05-21T23:45:55.821Z,7.95
2023-05-21T23:48:25.031Z,8.06
2023-05-21T23:50:55.928Z,8.08
2023-05-21T23:53:25.129Z,8.15
2023-05-21T23:55:54.397Z,8.15
2023-05-21T23:58:23.605Z,8.18
